Terminal Aerodrome Forecast
Issued by NWS

Home | Current Version | Previous Version | Text Only | Print | Product List | Glossary On
Versions: 1 2 3 4 5 6 7 8 9 10 11 12 13 14 15 16 17
986
FTUS42 KMLB 280749 AAA
TAFLEE
TAF AMD
KLEE 280749Z 2808/2906 29003KT P6SM SCT012
      TEMPO 2808/2810 BKN012
     FM281400 28008KT P6SM SKC
     FM290100 28005KT P6SM SKC=

USA.gov is the U.S. government's official web portal to all federal, state and local government web resources and services.